createdAt,value
2018-11-28T00:00:28.114Z,101043.91
2018-11-28T00:02:57.359Z,101042.92
2018-11-28T00:05:26.377Z,101045.86
2018-11-28T00:07:55.612Z,101047.98
2018-11-28T00:10:24.565Z,101045.19
2018-11-28T00:12:53.629Z,101048.80
2018-11-28T00:15:22.579Z,101041.41
2018-11-28T00:17:51.600Z,101040.28
2018-11-28T00:20:21.549Z,101042.92
2018-11-28T00:22:50.535Z,101051.90
2018-11-28T00:25:19.957Z,101052.08
2018-11-28T00:27:48.955Z,101053.03
2018-11-28T00:30:21.607Z,101050.59
2018-11-28T00:32:50.628Z,101047.45
2018-11-28T00:35:20.623Z,101050.70
2018-11-28T00:37:49.584Z,101053.20
2018-11-28T00:40:19.836Z,101054.80
2018-11-28T00:42:48.877Z,101053.49
2018-11-28T00:45:19.460Z,101053.67
2018-11-28T00:47:48.464Z,101058.41
2018-11-28T00:50:18.582Z,101058.55
2018-11-28T00:52:47.537Z,101058.55
2018-11-28T00:55:17.326Z,101055.93
2018-11-28T00:57:46.457Z,101051.69
2018-11-28T01:00:17.624Z,101060.17
2018-11-28T01:02:47.145Z,101064.41
2018-11-28T01:05:16.177Z,101059.32
2018-11-28T01:07:45.891Z,101058.48
2018-11-28T01:10:15.974Z,101065.29
2018-11-28T01:12:44.926Z,101055.15
2018-11-28T01:15:15.896Z,101064.13
2018-11-28T01:17:45.016Z,101066.91
2018-11-28T01:20:15.108Z,101059.17
2018-11-28T01:22:44.148Z,101064.40
2018-11-28T01:25:15.079Z,101065.53
2018-11-28T01:27:44.171Z,101077.50
2018-11-28T01:30:14.126Z,101075.38
2018-11-28T01:32:43.287Z,101071.77
2018-11-28T01:35:13.168Z,101069.27
2018-11-28T01:37:42.466Z,101066.02
2018-11-28T01:40:19.456Z,101064.85
2018-11-28T01:42:48.475Z,101069.72
2018-11-28T01:45:18.255Z,101070.39
2018-11-28T01:47:47.356Z,101071.06
2018-11-28T01:50:17.242Z,101070.70
2018-11-28T01:52:46.278Z,101076.11
2018-11-28T01:55:19.539Z,101074.80
2018-11-28T01:57:48.556Z,101076.11
2018-11-28T02:00:26.660Z,101082.56
2018-11-28T02:02:56.764Z,101089.48
2018-11-28T02:05:25.748Z,101090.25
2018-11-28T02:07:54.788Z,101083.09
2018-11-28T02:10:23.746Z,101085.35
2018-11-28T02:12:53.400Z,101079.44
2018-11-28T02:15:27.611Z,101081.91
2018-11-28T02:17:57.319Z,101084.98
2018-11-28T02:20:27.469Z,101082.05
2018-11-28T02:22:56.483Z,101078.14
2018-11-28T02:25:25.426Z,101082.73
2018-11-28T02:27:54.403Z,101083.67
2018-11-28T02:30:23.332Z,101081.91
2018-11-28T02:32:52.323Z,101086.11
2018-11-28T02:35:21.408Z,101087.09
2018-11-28T02:37:50.380Z,101091.11
2018-11-28T02:40:20.019Z,101098.58
2018-11-28T02:42:50.024Z,101107.04
2018-11-28T02:45:19.997Z,101102.17
2018-11-28T02:47:49.290Z,101107.39
2018-11-28T02:50:18.316Z,101108.08
2018-11-28T02:52:47.282Z,101110.95
2018-11-28T02:55:17.154Z,101117.67
2018-11-28T02:57:47.180Z,101107.22
2018-11-28T03:00:21.041Z,101108.02
2018-11-28T03:02:50.098Z,101110.94
2018-11-28T03:05:19.202Z,101108.33
2018-11-28T03:07:48.355Z,101115.31
2018-11-28T03:10:18.356Z,101120.89
2018-11-28T03:12:47.420Z,101126.30
2018-11-28T03:15:19.440Z,101127.75
2018-11-28T03:17:48.392Z,101123.95
2018-11-28T03:20:17.335Z,101135.02
2018-11-28T03:22:46.292Z,101133.20
2018-11-28T03:25:15.310Z,101125.64
2018-11-28T03:27:44.250Z,101123.20
2018-11-28T03:30:14.299Z,101125.95
2018-11-28T03:32:43.247Z,101133.84
2018-11-28T03:35:13.316Z,101134.16
2018-11-28T03:37:42.363Z,101133.66
2018-11-28T03:40:11.573Z,101136.71
2018-11-28T03:42:40.732Z,101133.23
2018-11-28T03:45:11.979Z,101139.19
2018-11-28T03:47:41.572Z,101149.33
2018-11-28T03:50:11.600Z,101149.37
2018-11-28T03:52:40.617Z,101149.44
2018-11-28T03:55:15.733Z,101153.98
2018-11-28T03:57:45.840Z,101152.10
2018-11-28T04:00:15.829Z,101159.77
2018-11-28T04:02:44.800Z,101158.33
2018-11-28T04:05:13.907Z,101163.41
2018-11-28T04:07:42.879Z,101160.26
2018-11-28T04:10:12.725Z,101166.92
2018-11-28T04:12:42.280Z,101170.52
2018-11-28T04:15:13.258Z,101163.50
2018-11-28T04:17:42.357Z,101165.87
2018-11-28T04:20:13.652Z,101162.12
2018-11-28T04:22:42.700Z,101161.52
2018-11-28T04:25:12.472Z,101163.77
2018-11-28T04:27:41.475Z,101167.23
2018-11-28T04:30:19.966Z,101166.88
2018-11-28T04:32:49.289Z,101176.11
2018-11-28T04:35:19.113Z,101174.56
2018-11-28T04:37:48.098Z,101185.48
2018-11-28T04:40:19.119Z,101176.98
2018-11-28T04:42:48.566Z,101179.88
2018-11-28T04:45:19.520Z,101177.59
2018-11-28T04:47:48.497Z,101178.91
2018-11-28T04:50:17.494Z,101180.59
2018-11-28T04:52:46.434Z,101181.22
2018-11-28T04:55:16.324Z,101188.72
2018-11-28T04:57:45.290Z,101181.95
2018-11-28T05:00:16.401Z,101183.78
2018-11-28T05:02:45.519Z,101184.70
2018-11-28T05:05:14.634Z,101189.30
2018-11-28T05:07:44.452Z,101184.76
2018-11-28T05:10:14.455Z,101186.75
2018-11-28T05:12:43.454Z,101178.97
2018-11-28T05:15:13.382Z,101187.31
2018-11-28T05:17:42.651Z,101192.27
2018-11-28T05:20:12.739Z,101191.09
2018-11-28T05:22:41.700Z,101186.45
2018-11-28T05:25:14.112Z,101192.24
2018-11-28T05:27:43.156Z,101186.70
2018-11-28T05:30:14.195Z,101192.22
2018-11-28T05:32:43.131Z,101193.66
2018-11-28T05:35:17.200Z,101199.36
2018-11-28T05:37:46.751Z,101192.73
2018-11-28T05:40:19.111Z,101200.29
2018-11-28T05:42:48.379Z,101204.99
2018-11-28T05:45:17.484Z,101200.43
2018-11-28T05:47:46.517Z,101202.03
2018-11-28T05:50:16.707Z,101199.06
2018-11-28T05:52:45.641Z,101206.59
2018-11-28T05:55:15.391Z,101195.76
2018-11-28T05:57:44.392Z,101194.86
2018-11-28T06:00:44.529Z,101200.73
2018-11-28T06:03:13.795Z,101207.64
2018-11-28T06:05:43.099Z,101211.00
2018-11-28T06:08:12.065Z,101215.06
2018-11-28T06:10:41.305Z,101217.52
2018-11-28T06:13:10.265Z,101217.72
2018-11-28T06:15:39.202Z,101228.38
2018-11-28T06:18:08.967Z,101219.66
2018-11-28T06:20:38.217Z,101216.38
2018-11-28T06:23:07.482Z,101224.36
2018-11-28T06:25:36.637Z,101227.02
2018-11-28T06:28:05.883Z,101225.09
2018-11-28T06:30:34.861Z,101228.70
2018-11-28T06:33:03.821Z,101236.95
2018-11-28T06:35:32.788Z,101237.57
2018-11-28T06:38:01.743Z,101235.81
2018-11-28T06:40:30.770Z,101235.33
2018-11-28T06:42:59.721Z,101244.55
2018-11-28T06:45:28.831Z,101244.36
2018-11-28T06:47:57.864Z,101248.20
2018-11-28T06:50:26.986Z,101243.34
2018-11-28T06:52:55.948Z,101245.66
2018-11-28T06:55:24.939Z,101249.97
2018-11-28T06:57:53.898Z,101252.28
2018-11-28T07:00:23.299Z,101248.56
2018-11-28T07:02:53.255Z,101253.97
2018-11-28T07:05:22.841Z,101256.99
2018-11-28T07:07:52.327Z,101255.17
2018-11-28T07:10:22.146Z,101256.00
2018-11-28T07:12:51.140Z,101260.37
2018-11-28T07:15:24.119Z,101256.98
2018-11-28T07:17:53.110Z,101257.13
2018-11-28T07:20:22.245Z,101258.91
2018-11-28T07:22:51.208Z,101261.50
2018-11-28T07:25:20.239Z,101256.83
2018-11-28T07:27:49.987Z,101256.00
2018-11-28T07:30:20.089Z,101252.92
2018-11-28T07:32:50.297Z,101248.02
2018-11-28T07:35:19.409Z,101255.76
2018-11-28T07:37:48.332Z,101256.79
2018-11-28T07:40:19.525Z,101258.38
2018-11-28T07:43:23.491Z,101252.91
2018-11-28T07:45:52.998Z,101259.09
2018-11-28T07:48:21.926Z,101265.01
2018-11-28T07:50:50.954Z,101264.64
2018-11-28T07:53:19.903Z,101260.26
2018-11-28T07:55:48.843Z,101261.35
2018-11-28T07:58:17.817Z,101259.44
2018-11-28T08:00:46.782Z,101254.27
2018-11-28T08:03:15.720Z,101255.78
2018-11-28T08:05:44.662Z,101255.67
2018-11-28T08:08:13.735Z,101252.62
2018-11-28T08:10:42.712Z,101260.39
2018-11-28T08:13:11.726Z,101253.23
2018-11-28T08:15:40.633Z,101255.59
2018-11-28T08:18:09.563Z,101253.03
2018-11-28T08:20:38.638Z,101251.86
2018-11-28T08:23:07.655Z,101254.98
2018-11-28T08:25:36.647Z,101261.20
2018-11-28T08:28:05.949Z,101260.17
2018-11-28T08:30:34.935Z,101260.66
2018-11-28T08:33:03.916Z,101259.16
2018-11-28T08:35:32.935Z,101266.61
2018-11-28T08:38:02.389Z,101259.61
2018-11-28T08:40:31.328Z,101257.13
2018-11-28T08:43:00.304Z,101260.27
2018-11-28T08:45:29.311Z,101260.94
2018-11-28T08:47:59.420Z,101266.88
2018-11-28T08:50:34.330Z,101265.95
2018-11-28T08:53:03.263Z,101263.00
2018-11-28T08:55:32.258Z,101266.70
2018-11-28T08:58:01.201Z,101261.97
2018-11-28T09:00:30.137Z,101264.54
2018-11-28T09:03:06.234Z,101271.77
2018-11-28T09:05:35.261Z,101276.88
2018-11-28T09:08:04.204Z,101274.88
2018-11-28T09:10:33.316Z,101275.75
2018-11-28T09:13:04.327Z,101273.06
2018-11-28T09:15:31.950Z,101269.68
2018-11-28T09:18:00.922Z,101273.77
2018-11-28T09:20:29.869Z,101262.91
2018-11-28T09:22:58.827Z,101257.96
2018-11-28T09:25:27.772Z,101261.45
2018-11-28T09:27:58.067Z,101271.98
2018-11-28T09:30:27.035Z,101264.43
2018-11-28T09:32:55.964Z,101259.17
2018-11-28T09:35:24.970Z,101252.95
2018-11-28T09:37:53.919Z,101253.66
2018-11-28T09:40:24.862Z,101255.38
2018-11-28T09:42:55.976Z,101250.84
2018-11-28T09:45:24.936Z,101253.73
2018-11-28T09:47:53.933Z,101255.71
2018-11-28T09:50:23.907Z,101253.99
2018-11-28T09:52:53.100Z,101249.08
2018-11-28T09:55:25.091Z,101248.13
2018-11-28T09:57:54.117Z,101245.23
2018-11-28T10:00:25.015Z,101238.66
2018-11-28T10:02:56.094Z,101244.78
2018-11-28T10:05:30.155Z,101242.81
2018-11-28T10:07:59.567Z,101243.16
2018-11-28T10:10:28.649Z,101241.72
2018-11-28T10:12:57.807Z,101233.55
2018-11-28T10:15:28.547Z,101235.56
2018-11-28T10:17:57.431Z,101235.45
2018-11-28T10:20:26.376Z,101231.80
2018-11-28T10:22:55.563Z,101223.02
2018-11-28T10:25:26.387Z,101226.66
2018-11-28T10:27:58.902Z,101223.42
2018-11-28T10:30:30.187Z,101232.64
2018-11-28T10:32:59.169Z,101222.18
2018-11-28T10:35:28.124Z,101230.31
2018-11-28T10:37:57.058Z,101220.86
2018-11-28T10:40:26.213Z,101217.22
2018-11-28T10:42:57.128Z,101209.36
2018-11-28T10:45:26.974Z,101220.44
2018-11-28T10:47:55.989Z,101216.88
2018-11-28T10:50:24.904Z,101221.87
2018-11-28T10:52:53.872Z,101218.70
2018-11-28T10:55:23.676Z,101218.60
2018-11-28T10:57:53.255Z,101217.80
2018-11-28T11:00:28.683Z,101211.89
2018-11-28T11:03:03.004Z,101219.19
2018-11-28T11:05:37.287Z,101221.28
2018-11-28T11:08:12.268Z,101215.02
2018-11-28T11:10:46.719Z,101216.80
2018-11-28T11:13:20.963Z,101223.94
2018-11-28T11:16:00.073Z,101216.47
2018-11-28T11:18:29.502Z,101217.91
2018-11-28T11:20:58.408Z,101208.70
2018-11-28T11:23:27.356Z,101215.09
2018-11-28T11:25:56.409Z,101217.55
2018-11-28T11:28:25.370Z,101223.26
2018-11-28T11:30:55.522Z,101222.86
2018-11-28T11:33:24.616Z,101218.80
2018-11-28T11:35:53.625Z,101217.73
2018-11-28T11:38:22.621Z,101221.14
2018-11-28T11:40:51.594Z,101218.91
2018-11-28T11:43:20.536Z,101228.13
2018-11-28T11:45:49.655Z,101228.47
2018-11-28T11:48:18.595Z,101216.44
2018-11-28T11:50:47.553Z,101209.05
2018-11-28T11:53:16.529Z,101208.14
2018-11-28T11:55:45.613Z,101207.84
2018-11-28T11:58:14.548Z,101217.55
2018-11-28T12:00:45.039Z,101208.91
2018-11-28T12:03:14.653Z,101210.02
2018-11-28T12:05:45.457Z,101203.80
2018-11-28T12:08:14.399Z,101204.78
2018-11-28T12:10:43.396Z,101205.16
2018-11-28T12:13:12.307Z,101201.12
2018-11-28T12:15:41.397Z,101191.70
2018-11-28T12:18:10.579Z,101206.53
2018-11-28T12:20:41.695Z,101209.92
2018-11-28T12:23:10.656Z,101207.52
2018-11-28T12:25:39.733Z,101216.57
2018-11-28T12:28:08.700Z,101196.43
2018-11-28T12:30:38.854Z,101194.84
2018-11-28T12:33:07.993Z,101208.25
2018-11-28T12:35:36.936Z,101197.48
2018-11-28T12:38:06.548Z,101190.90
2018-11-28T12:40:36.154Z,101191.64
2018-11-28T12:43:08.799Z,101197.60
2018-11-28T12:45:39.794Z,101185.92
2018-11-28T12:48:08.823Z,101192.42
2018-11-28T12:50:37.917Z,101192.08
2018-11-28T12:53:08.236Z,101202.67
2018-11-28T12:55:37.656Z,101181.45
2018-11-28T12:58:08.978Z,101187.16
2018-11-28T13:00:37.968Z,101194.45
2018-11-28T13:03:08.399Z,101188.16
2018-11-28T13:05:37.331Z,101183.50
2018-11-28T13:08:06.569Z,101176.52
2018-11-28T13:10:37.457Z,101184.97
2018-11-28T13:13:07.960Z,101186.23
2018-11-28T13:15:37.793Z,101177.39
2018-11-28T13:18:07.924Z,101172.88
2018-11-28T13:20:36.941Z,101169.28
2018-11-28T13:23:06.636Z,101164.67
2018-11-28T13:25:35.567Z,101162.83
2018-11-28T13:28:04.514Z,101154.47
2018-11-28T13:30:33.522Z,101159.63
2018-11-28T13:33:02.459Z,101159.81
2018-11-28T13:35:31.381Z,101154.16
2018-11-28T13:38:17.586Z,101154.50
2018-11-28T13:40:46.596Z,101156.66
2018-11-28T13:43:15.587Z,101161.15
2018-11-28T13:45:46.221Z,101160.08
2018-11-28T13:48:16.236Z,101160.45
2018-11-28T13:50:45.191Z,101161.17
2018-11-28T13:53:15.864Z,101149.07
2018-11-28T13:56:57.317Z,101158.24
2018-11-28T13:58:23.569Z,101157.41
2018-11-28T14:00:53.841Z,101151.11
2018-11-28T14:03:23.236Z,101154.67
2018-11-28T14:05:52.304Z,101153.33
2018-11-28T14:08:21.263Z,101154.41
2018-11-28T14:10:50.201Z,101157.22
2018-11-28T14:13:19.176Z,101146.25
2018-11-28T14:15:48.103Z,101160.34
2018-11-28T14:18:18.464Z,101155.17
2018-11-28T14:20:47.385Z,101159.77
2018-11-28T14:23:16.323Z,101155.38
2018-11-28T14:25:45.251Z,101167.61
2018-11-28T14:28:14.242Z,101160.56
2018-11-28T14:30:44.198Z,101168.58
2018-11-28T14:33:13.203Z,101172.84
2018-11-28T14:35:42.135Z,101168.41
2018-11-28T14:38:11.201Z,101165.11
2018-11-28T14:40:40.144Z,101168.19
2018-11-28T14:43:09.123Z,101160.91
2018-11-28T14:45:38.071Z,101165.78
2018-11-28T14:48:07.057Z,101162.47
2018-11-28T14:50:35.982Z,101154.27
2018-11-28T14:53:05.139Z,101158.93
2018-11-28T14:55:36.257Z,101153.23
2018-11-28T14:58:05.452Z,101169.95
2018-11-28T15:00:34.494Z,101162.48
2018-11-28T15:03:06.749Z,101162.31
2018-11-28T15:05:47.424Z,101177.89
2018-11-28T15:08:18.097Z,101170.36
2018-11-28T15:10:53.532Z,101176.72
2018-11-28T15:13:22.455Z,101165.92
2018-11-28T15:15:51.467Z,101171.27
2018-11-28T15:18:20.387Z,101165.23
2018-11-28T15:20:49.331Z,101167.00
2018-11-28T15:23:18.271Z,101160.64
2018-11-28T15:25:47.232Z,101165.68
2018-11-28T15:28:16.193Z,101163.82
2018-11-28T15:30:45.339Z,101163.10
2018-11-28T15:33:14.326Z,101161.99
2018-11-28T15:35:43.320Z,101156.47
2018-11-28T15:38:12.468Z,101162.23
2018-11-28T15:40:41.972Z,101149.59
2018-11-28T15:43:10.916Z,101157.52
2018-11-28T15:45:40.018Z,101164.44
2018-11-28T15:48:08.954Z,101163.75
2018-11-28T15:50:37.895Z,101170.84
2018-11-28T15:53:07.014Z,101161.37
2018-11-28T15:55:36.122Z,101165.43
2018-11-28T15:58:05.475Z,101161.72
2018-11-28T16:00:34.565Z,101162.98
2018-11-28T16:03:03.540Z,101168.95
2018-11-28T16:05:32.532Z,101164.52
2018-11-28T16:08:01.528Z,101173.98
2018-11-28T16:10:39.928Z,101175.35
2018-11-28T16:13:09.143Z,101182.23
2018-11-28T16:15:43.256Z,101168.63
2018-11-28T16:18:12.228Z,101171.39
2018-11-28T16:20:41.160Z,101167.82
2018-11-28T16:23:10.140Z,101164.42
2018-11-28T16:25:39.184Z,101160.08
2018-11-28T16:28:08.531Z,101153.62
2018-11-28T16:30:37.467Z,101164.68
2018-11-28T16:33:07.138Z,101160.09
2018-11-28T16:35:36.966Z,101160.90
2018-11-28T16:38:06.368Z,101160.52
2018-11-28T16:40:35.396Z,101151.24
2018-11-28T16:43:04.381Z,101159.83
2018-11-28T16:45:33.373Z,101163.66
2018-11-28T16:48:03.016Z,101168.69
2018-11-28T16:50:31.992Z,101166.98
2018-11-28T16:53:00.968Z,101174.59
2018-11-28T16:55:29.933Z,101170.52
2018-11-28T16:57:58.869Z,101165.37
2018-11-28T17:00:29.147Z,101170.30
2018-11-28T17:02:58.247Z,101177.61
2018-11-28T17:05:28.994Z,101172.05
2018-11-28T17:07:58.883Z,101171.75
2018-11-28T17:10:28.841Z,101186.77
2018-11-28T17:12:58.668Z,101176.85
2018-11-28T17:15:28.230Z,101175.28
2018-11-28T17:17:57.233Z,101175.53
2018-11-28T17:20:27.463Z,101177.87
2018-11-28T17:22:57.793Z,101178.59
2018-11-28T17:25:30.051Z,101183.92
2018-11-28T17:27:59.257Z,101184.94
2018-11-28T17:30:29.176Z,101182.81
2018-11-28T17:32:58.220Z,101174.14
2018-11-28T17:35:27.181Z,101176.65
2018-11-28T17:37:56.189Z,101178.22
2018-11-28T17:40:26.402Z,101172.13
2018-11-28T17:42:56.587Z,101184.20
2018-11-28T17:45:25.952Z,101167.37
2018-11-28T17:47:54.891Z,101170.20
2018-11-28T17:50:25.714Z,101170.64
2018-11-28T17:53:01.363Z,101161.79
2018-11-28T17:55:32.507Z,101177.92
2018-11-28T17:58:01.651Z,101173.41
2018-11-28T18:00:31.283Z,101163.28
2018-11-28T18:03:00.263Z,101161.53
2018-11-28T18:05:29.307Z,101164.55
2018-11-28T18:07:58.293Z,101161.79
2018-11-28T18:10:27.228Z,101157.84
2018-11-28T18:13:17.547Z,101160.09
2018-11-28T18:15:48.024Z,101159.45
2018-11-28T18:18:18.358Z,101155.12
2018-11-28T18:20:50.187Z,101154.64
2018-11-28T18:23:16.364Z,101155.93
2018-11-28T18:25:46.059Z,101150.66
2018-11-28T18:28:15.045Z,101148.53
2018-11-28T18:30:45.443Z,101151.04
2018-11-28T18:33:14.794Z,101156.95
2018-11-28T18:35:43.998Z,101150.15
2018-11-28T18:38:12.976Z,101156.87
2018-11-28T18:40:41.930Z,101154.36
2018-11-28T18:43:11.372Z,101156.11
2018-11-28T18:45:42.225Z,101150.70
2018-11-28T18:48:11.181Z,101154.91
2018-11-28T18:50:40.111Z,101158.48
2018-11-28T18:53:09.056Z,101150.58
2018-11-28T18:55:38.003Z,101155.17
2018-11-28T18:58:08.491Z,101151.21
2018-11-28T19:00:37.632Z,101155.85
2018-11-28T19:03:07.389Z,101151.27
2018-11-28T19:05:36.522Z,101155.64
2018-11-28T19:08:06.293Z,101147.98
2018-11-28T19:10:35.367Z,101153.72
2018-11-28T19:13:04.483Z,101157.30
2018-11-28T19:15:33.494Z,101147.94
2018-11-28T19:18:02.610Z,101151.47
2018-11-28T19:20:31.578Z,101152.45
2018-11-28T19:23:00.534Z,101155.17
2018-11-28T19:25:29.916Z,101147.39
2018-11-28T19:27:58.840Z,101167.59
2018-11-28T19:30:32.906Z,101163.50
2018-11-28T19:33:01.864Z,101166.02
2018-11-28T19:35:32.837Z,101161.88
2018-11-28T19:38:02.655Z,101158.28
2018-11-28T19:40:45.534Z,101156.16
2018-11-28T19:43:14.519Z,101162.99
2018-11-28T19:45:43.583Z,101153.64
2018-11-28T19:48:12.620Z,101156.95
2018-11-28T19:50:41.907Z,101165.72
2018-11-28T19:53:10.987Z,101165.84
2018-11-28T19:55:40.644Z,101172.81
2018-11-28T19:58:09.678Z,101176.50
2018-11-28T20:00:41.774Z,101172.08
2018-11-28T20:03:10.753Z,101168.97
2018-11-28T20:05:39.687Z,101170.22
2018-11-28T20:08:08.979Z,101161.75
2018-11-28T20:10:38.241Z,101173.95
2018-11-28T20:13:08.907Z,101180.67
2018-11-28T20:15:38.943Z,101165.70
2018-11-28T20:18:09.032Z,101160.43
2018-11-28T20:20:38.284Z,101164.12
2018-11-28T20:23:08.284Z,101163.74
2018-11-28T20:25:37.842Z,101166.42
2018-11-28T20:28:08.220Z,101159.41
2018-11-28T20:30:41.727Z,101167.66
2018-11-28T20:33:11.468Z,101158.47
2018-11-28T20:35:41.345Z,101158.55
2018-11-28T20:38:15.012Z,101163.48
2018-11-28T20:40:43.971Z,101161.02
2018-11-28T20:43:13.161Z,101162.03
2018-11-28T20:45:42.562Z,101171.05
2018-11-28T20:48:11.536Z,101159.52
2018-11-28T20:50:41.011Z,101160.88
2018-11-28T20:53:11.527Z,101159.98
2018-11-28T20:55:40.774Z,101160.28
2018-11-28T20:58:09.907Z,101160.28
2018-11-28T21:00:39.149Z,101153.22
2018-11-28T21:03:09.375Z,101159.51
2018-11-28T21:05:38.347Z,101156.20
2018-11-28T21:08:09.572Z,101162.45
2018-11-28T21:10:40.341Z,101158.29
2018-11-28T21:13:13.937Z,101149.31
2018-11-28T21:15:44.452Z,101163.80
2018-11-28T21:18:13.839Z,101154.24
2018-11-28T21:20:44.055Z,101146.88
2018-11-28T21:23:14.334Z,101144.45
2018-11-28T21:25:43.603Z,101149.21
2018-11-28T21:28:12.624Z,101148.41
2018-11-28T21:30:41.920Z,101140.23
2018-11-28T21:33:12.319Z,101144.96
2018-11-28T21:35:43.422Z,101150.64
2018-11-28T21:38:12.444Z,101133.59
2018-11-28T21:40:41.483Z,101139.66
2018-11-28T21:43:10.466Z,101143.89
2018-11-28T21:45:39.640Z,101147.40
2018-11-28T21:48:08.624Z,101141.19
2018-11-28T21:50:37.637Z,101133.89
2018-11-28T21:53:08.161Z,101135.78
2018-11-28T21:55:37.292Z,101137.44
2018-11-28T21:58:06.643Z,101141.80
2018-11-28T22:00:36.639Z,101133.16
2018-11-28T22:03:06.654Z,101142.40
2018-11-28T22:05:35.647Z,101135.82
2018-11-28T22:08:04.594Z,101138.63
2018-11-28T22:10:33.732Z,101127.95
2018-11-28T22:13:02.887Z,101131.06
2018-11-28T22:15:31.850Z,101135.48
2018-11-28T22:18:00.980Z,101134.84
2018-11-28T22:20:29.947Z,101134.17
2018-11-28T22:22:58.893Z,101132.44
2018-11-28T22:25:28.341Z,101122.05
2018-11-28T22:27:57.757Z,101128.33
2018-11-28T22:30:28.503Z,101119.25
2018-11-28T22:32:58.038Z,101105.75
2018-11-28T22:35:27.083Z,101105.88
2018-11-28T22:37:56.052Z,101092.72
2018-11-28T22:40:27.067Z,101097.98
2018-11-28T22:42:56.021Z,101097.72
2018-11-28T22:45:28.274Z,101096.87
2018-11-28T22:47:57.223Z,101097.67
2018-11-28T22:50:26.210Z,101098.18
2018-11-28T22:52:55.155Z,101100.78
2018-11-28T22:55:24.104Z,101095.01
2018-11-28T22:57:53.199Z,101094.13
2018-11-28T23:00:30.293Z,101090.78
2018-11-28T23:03:07.836Z,101093.08
2018-11-28T23:05:40.164Z,101087.20
2018-11-28T23:08:09.989Z,101076.25
2018-11-28T23:10:39.453Z,101076.47
2018-11-28T23:13:09.488Z,101079.70
2018-11-28T23:15:38.437Z,101075.07
2018-11-28T23:18:08.342Z,101078.42
2018-11-28T23:20:37.381Z,101093.50
2018-11-28T23:23:07.305Z,101076.42
2018-11-28T23:25:36.573Z,101075.24
2018-11-28T23:28:05.816Z,101074.26
2018-11-28T23:30:34.763Z,101065.98
2018-11-28T23:33:05.608Z,101082.97
2018-11-28T23:35:35.884Z,101086.00
2018-11-28T23:38:05.717Z,101077.67
2018-11-28T23:40:34.671Z,101071.52
2018-11-28T23:43:04.009Z,101076.53
2018-11-28T23:45:33.061Z,101064.63
2018-11-28T23:48:02.252Z,101056.30
2018-11-28T23:50:31.212Z,101048.47
2018-11-28T23:53:00.169Z,101051.88
2018-11-28T23:55:30.296Z,101047.72
2018-11-28T23:57:59.268Z,101032.86
